Time;durP1;ratioP1;P1;durP2;ratioP2;P2;SDS_P1;SDS_P2;PMS_P1;PMS_P2;Temp;Humidity;BMP_temperature;BMP_pressure;BME280_temperature;BME280_humidity;BME280_pressure;Samples;Min_cycle;Max_cycle;Signal;HPM_P1;HPM_P2
2022/03/17 00:02:03;;;;;;;32.55;22.80;;;;;;;;;;6237738;23;20012;-83
2022/03/17 00:04:31;;;;;;;31.25;23.13;;;;;;;;;;6238067;23;20021;-91
2022/03/17 00:06:58;;;;;;;35.55;22.60;;;;;;;;;;6210801;23;20058;-86
2022/03/17 00:09:24;;;;;;;30.77;21.25;;;;;;;;;;6238400;23;20020;-89
2022/03/17 00:11:51;;;;;;;34.08;22.00;;;;;;;;;;6237023;23;20069;-86
2022/03/17 00:14:17;;;;;;;31.48;21.50;;;;;;;;;;6210916;23;20032;-93
2022/03/17 00:16:43;;;;;;;32.10;22.60;;;;;;;;;;6239152;23;20012;-84
2022/03/17 00:19:09;;;;;;;30.30;22.17;;;;;;;;;;6237100;23;20020;-89
2022/03/17 00:21:36;;;;;;;31.15;22.00;;;;;;;;;;6162163;23;20023;-87
2022/03/17 00:24:03;;;;;;;32.75;22.42;;;;;;;;;;6237159;23;20472;-85
2022/03/17 00:26:29;;;;;;;29.90;20.70;;;;;;;;;;6240271;23;20028;-88
2022/03/17 00:28:55;;;;;;;40.33;23.85;;;;;;;;;;6236990;23;20016;-85
2022/03/17 00:31:21;;;;;;;33.65;24.13;;;;;;;;;;6239350;23;20012;-87
2022/03/17 00:33:47;;;;;;;35.38;25.33;;;;;;;;;;6235856;23;20024;-85
2022/03/17 00:36:13;;;;;;;33.47;22.25;;;;;;;;;;6239281;23;20016;-90
2022/03/17 00:38:40;;;;;;;34.75;23.25;;;;;;;;;;6236919;23;20526;-88
2022/03/17 00:41:06;;;;;;;32.17;23.05;;;;;;;;;;6237728;23;20020;-87
2022/03/17 00:43:34;;;;;;;31.98;22.80;;;;;;;;;;6211710;23;20020;-84
2022/03/17 00:46:03;;;;;;;31.65;23.73;;;;;;;;;;6213891;23;20024;-92
2022/03/17 00:48:29;;;;;;;36.25;24.88;;;;;;;;;;6173906;23;20035;-88
2022/03/17 00:50:55;;;;;;;32.30;21.85;;;;;;;;;;6249180;23;20020;-88
2022/03/17 00:53:22;;;;;;;30.02;23.08;;;;;;;;;;6242229;23;20035;-84
2022/03/17 00:55:48;;;;;;;33.72;24.35;;;;;;;;;;6238659;23;20016;-88
2022/03/17 00:58:23;;;;;;;34.40;23.92;;;;;;;;;;6213482;23;20059;-92
2022/03/17 01:00:49;;;;;;;32.40;25.90;;;;;;;;;;6239540;23;20329;-88
2022/03/17 01:03:15;;;;;;;32.45;22.98;;;;;;;;;;6246492;23;20388;-88
2022/03/17 01:05:41;;;;;;;35.95;26.95;;;;;;;;;;6250617;23;20348;-90
2022/03/17 01:08:08;;;;;;;36.70;24.25;;;;;;;;;;6244000;23;20024;-88
2022/03/17 01:10:35;;;;;;;28.83;20.40;;;;;;;;;;6242844;23;20024;-90
2022/03/17 01:13:04;;;;;;;35.70;23.67;;;;;;;;;;6239905;23;20095;-92
2022/03/17 01:15:30;;;;;;;36.75;23.83;;;;;;;;;;6238872;23;20019;-91
2022/03/17 01:17:57;;;;;;;35.90;24.05;;;;;;;;;;6242787;23;20059;-92
2022/03/17 01:20:23;;;;;;;38.85;25.92;;;;;;;;;;6239219;23;20023;-90
2022/03/17 01:22:49;;;;;;;33.50;24.33;;;;;;;;;;6239897;23;20020;-85
2022/03/17 01:25:15;;;;;;;36.45;24.25;;;;;;;;;;6244467;23;20078;-93
2022/03/17 01:27:57;;;;;;;34.10;22.40;;;;;;;;;;6238654;23;20019;-93
2022/03/17 01:30:23;;;;;;;31.55;23.38;;;;;;;;;;6237363;23;20024;-90
2022/03/17 01:32:52;;;;;;;35.40;24.10;;;;;;;;;;6236856;23;20017;-92
2022/03/17 01:35:19;;;;;;;35.33;24.75;;;;;;;;;;6235787;23;20114;-91
2022/03/17 01:37:45;;;;;;;30.58;23.85;;;;;;;;;;6238500;23;20081;-89
2022/03/17 01:40:11;;;;;;;38.15;25.15;;;;;;;;;;6239884;23;20367;-93
2022/03/17 01:42:39;;;;;;;36.65;24.95;;;;;;;;;;6238690;23;20420;-92
2022/03/17 01:45:06;;;;;;;34.70;23.73;;;;;;;;;;6239271;23;20027;-93
2022/03/17 01:47:33;;;;;;;37.58;24.65;;;;;;;;;;6237506;23;20019;-92
2022/03/17 01:50:05;;;;;;;37.78;25.55;;;;;;;;;;6240863;23;20024;-93
2022/03/17 01:52:31;;;;;;;32.28;22.50;;;;;;;;;;6236066;23;20024;-90
2022/03/17 01:54:58;;;;;;;38.63;24.88;;;;;;;;;;6237154;23;20020;-93
2022/03/17 01:57:24;;;;;;;34.05;24.90;;;;;;;;;;6238294;23;20016;-94
2022/03/17 01:59:51;;;;;;;34.88;24.83;;;;;;;;;;6210632;23;20031;-90
2022/03/17 02:02:17;;;;;;;34.30;23.13;;;;;;;;;;6210661;23;20456;-93
2022/03/17 02:04:43;;;;;;;36.97;24.83;;;;;;;;;;6238343;23;20020;-94
2022/03/17 02:07:11;;;;;;;34.47;25.20;;;;;;;;;;6235483;23;20023;-91
2022/03/17 02:09:38;;;;;;;36.83;26.33;;;;;;;;;;6236064;23;20099;-89
2022/03/17 02:14:54;;;;;;;39.42;25.73;;;;;;;;;;6235264;23;20024;-91
2022/03/17 02:17:21;;;;;;;36.28;24.10;;;;;;;;;;6238149;23;20055;-90
2022/03/17 02:19:47;;;;;;;35.65;26.15;;;;;;;;;;6236154;23;20019;-91
2022/03/17 02:22:15;;;;;;;33.80;24.27;;;;;;;;;;6239229;23;20441;-91
2022/03/17 02:27:28;;;;;;;37.40;25.23;;;;;;;;;;6237537;23;20062;-92
2022/03/17 02:29:54;;;;;;;34.17;23.88;;;;;;;;;;6239964;23;20438;-89
2022/03/17 02:32:20;;;;;;;38.17;25.88;;;;;;;;;;6238136;23;20016;-93
2022/03/17 02:34:47;;;;;;;38.78;25.42;;;;;;;;;;6239486;23;20020;-90
2022/03/17 02:37:15;;;;;;;33.83;25.10;;;;;;;;;;6236557;23;20024;-94
2022/03/17 02:39:42;;;;;;;33.85;25.35;;;;;;;;;;6237950;23;20532;-89
2022/03/17 02:42:10;;;;;;;37.10;25.35;;;;;;;;;;6209145;23;20103;-93
2022/03/17 02:44:36;;;;;;;35.55;25.42;;;;;;;;;;6211145;23;20098;-93
2022/03/17 02:47:03;;;;;;;37.10;26.58;;;;;;;;;;6235819;23;20466;-93
2022/03/17 02:49:30;;;;;;;37.55;25.50;;;;;;;;;;6236940;23;20069;-90
2022/03/17 02:51:56;;;;;;;35.92;25.25;;;;;;;;;;6235769;23;20032;-92
2022/03/17 02:54:22;;;;;;;37.10;26.23;;;;;;;;;;6183602;23;20020;-92
2022/03/17 02:56:48;;;;;;;35.60;25.58;;;;;;;;;;6237368;23;20016;-91
2022/03/17 02:59:14;;;;;;;38.17;25.77;;;;;;;;;;6235859;23;20021;-90
2022/03/17 03:01:40;;;;;;;35.97;26.17;;;;;;;;;;6238513;23;20020;-94
2022/03/17 03:04:07;;;;;;;38.67;27.63;;;;;;;;;;6239749;23;20055;-93
2022/03/17 03:06:33;;;;;;;34.70;27.52;;;;;;;;;;6239148;23;20023;-91
2022/03/17 03:08:59;;;;;;;37.80;27.48;;;;;;;;;;6239773;23;20114;-92
2022/03/17 03:11:25;;;;;;;41.22;27.05;;;;;;;;;;6247912;23;20023;-88
2022/03/17 03:13:51;;;;;;;37.30;25.42;;;;;;;;;;6243146;23;20012;-92
2022/03/17 03:16:18;;;;;;;42.85;27.73;;;;;;;;;;6238781;23;20031;-91
2022/03/17 03:18:44;;;;;;;38.35;27.55;;;;;;;;;;6238713;23;20023;-91
2022/03/17 03:21:10;;;;;;;37.50;27.77;;;;;;;;;;6237276;23;20023;-93
2022/03/17 03:23:37;;;;;;;37.58;24.35;;;;;;;;;;6239048;23;20612;-93
2022/03/17 03:26:03;;;;;;;35.10;26.40;;;;;;;;;;6239031;23;20048;-91
2022/03/17 03:28:29;;;;;;;36.08;25.83;;;;;;;;;;6239921;23;20016;-87
2022/03/17 03:30:55;;;;;;;38.90;27.70;;;;;;;;;;6238651;23;20447;-93
2022/03/17 03:33:21;;;;;;;39.72;26.00;;;;;;;;;;6212164;23;20051;-91
2022/03/17 03:38:32;;;;;;;40.53;25.73;;;;;;;;;;6246579;23;20515;-91
2022/03/17 03:40:59;;;;;;;35.75;27.17;;;;;;;;;;6246179;23;20028;-92
2022/03/17 03:43:25;;;;;;;37.65;26.17;;;;;;;;;;6245547;23;20471;-89
2022/03/17 03:45:52;;;;;;;36.70;25.45;;;;;;;;;;6187651;23;20059;-92
2022/03/17 03:48:18;;;;;;;38.78;25.48;;;;;;;;;;6239769;23;20020;-89
2022/03/17 03:50:46;;;;;;;36.63;26.20;;;;;;;;;;6211857;23;20121;-90
2022/03/17 03:53:12;;;;;;;34.30;26.48;;;;;;;;;;6239701;23;20163;-92
2022/03/17 03:55:38;;;;;;;36.38;27.15;;;;;;;;;;6238068;23;20016;-86
2022/03/17 03:58:04;;;;;;;37.15;26.30;;;;;;;;;;6243247;23;20024;-92
2022/03/17 04:02:57;;;;;;;33.08;24.45;;;;;;;;;;6241177;23;20486;-87
2022/03/17 04:05:29;;;;;;;38.25;27.17;;;;;;;;;;6221719;23;20027;-91
2022/03/17 04:07:56;;;;;;;33.67;24.77;;;;;;;;;;6258879;23;20068;-88
2022/03/17 04:10:44;;;;;;;35.30;25.92;;;;;;;;;;6240626;23;20016;-87
2022/03/17 04:13:10;;;;;;;33.78;24.80;;;;;;;;;;6238154;23;20023;-91
2022/03/17 04:15:36;;;;;;;34.83;24.88;;;;;;;;;;6244426;23;20055;-92
2022/03/17 04:18:02;;;;;;;36.38;25.83;;;;;;;;;;6241771;23;20461;-93
2022/03/17 04:20:28;;;;;;;33.40;25.58;;;;;;;;;;6243098;23;20023;-87
2022/03/17 04:22:55;;;;;;;35.03;26.05;;;;;;;;;;6251547;23;20241;-88
2022/03/17 04:25:21;;;;;;;41.00;24.35;;;;;;;;;;6195943;23;20019;-90
2022/03/17 04:27:47;;;;;;;35.58;25.80;;;;;;;;;;6243710;23;20416;-90
2022/03/17 04:30:14;;;;;;;40.00;27.05;;;;;;;;;;6241846;23;20127;-89
2022/03/17 04:32:40;;;;;;;32.85;24.98;;;;;;;;;;6239443;23;20020;-91
2022/03/17 04:35:07;;;;;;;33.95;25.30;;;;;;;;;;6239582;23;20555;-90
2022/03/17 04:37:33;;;;;;;33.30;25.02;;;;;;;;;;6240127;23;20471;-89
2022/03/17 04:39:59;;;;;;;38.88;25.60;;;;;;;;;;6238511;23;20012;-90
2022/03/17 04:42:25;;;;;;;35.85;26.65;;;;;;;;;;6239027;23;20096;-92
2022/03/17 04:44:52;;;;;;;39.55;26.48;;;;;;;;;;6209976;23;20050;-85
2022/03/17 04:47:18;;;;;;;37.65;27.35;;;;;;;;;;6238112;23;20016;-92
2022/03/17 04:49:44;;;;;;;39.33;28.60;;;;;;;;;;6235934;23;20034;-96
2022/03/17 04:54:54;;;;;;;;;;;;;;;;;;6238143;23;20103;-91
2022/03/17 04:57:24;;;;;;;41.53;29.98;;;;;;;;;;6237230;23;20615;-88
2022/03/17 04:59:51;;;;;;;44.65;30.42;;;;;;;;;;6237660;23;20507;-86
2022/03/17 05:02:17;;;;;;;41.25;29.33;;;;;;;;;;6233316;23;20031;-87
2022/03/17 05:04:43;;;;;;;41.85;30.70;;;;;;;;;;6232780;23;20024;-89
2022/03/17 05:07:28;;;;;;;48.17;32.70;;;;;;;;;;6205913;23;20012;-86
2022/03/17 05:19:17;;;;;;;60.47;39.15;;;;;;;;;;6175692;22;20103;-91
2022/03/17 05:21:44;;;;;;;58.08;38.03;;;;;;;;;;6208424;23;20395;-90
2022/03/17 05:24:10;;;;;;;70.80;44.95;;;;;;;;;;6209381;23;20012;-91
2022/03/17 05:26:46;;;;;;;78.80;45.88;;;;;;;;;;6233793;23;20024;-90
2022/03/17 05:29:12;;;;;;;70.30;44.00;;;;;;;;;;6237740;23;20024;-93
2022/03/17 05:31:39;;;;;;;85.72;51.58;;;;;;;;;;6232865;23;20074;-89
2022/03/17 05:34:05;;;;;;;93.35;49.50;;;;;;;;;;6237000;23;20023;-92
2022/03/17 05:36:31;;;;;;;95.35;56.42;;;;;;;;;;6233250;23;20024;-91
2022/03/17 05:38:57;;;;;;;96.47;53.58;;;;;;;;;;6236285;23;20024;-91
2022/03/17 05:41:23;;;;;;;94.97;55.03;;;;;;;;;;6158870;23;20093;-91
2022/03/17 05:44:14;;;;;;;89.60;45.90;;;9.20;99.90;;;;;;6235380;23;20452;-90
2022/03/17 05:46:40;;;;;;;81.45;45.00;;;;;;;;;;6183986;23;20380;-92
2022/03/17 05:49:06;;;;;;;85.85;48.15;;;;;;;;;;6207138;23;20845;-90
2022/03/17 05:51:32;;;;;;;77.32;47.72;;;;;;;;;;6236061;23;20023;-90
2022/03/17 05:53:59;;;;;;;42.33;24.88;;;;;;;;;;6232736;23;20051;-89
2022/03/17 05:56:25;;;;;;;26.25;16.15;;;;;;;;;;6237718;23;20024;-87
2022/03/17 05:59:01;;;;;;;16.70;12.45;;;;;;;;;;6239766;23;20016;-91
2022/03/17 06:01:27;;;;;;;16.35;11.55;;;;;;;;;;6243505;23;20103;-90
2022/03/17 06:03:53;;;;;;;14.23;10.80;;;;;;;;;;6206785;23;20122;-89
2022/03/17 06:06:19;;;;;;;14.73;10.95;;;;;;;;;;6209139;23;20020;-87
2022/03/17 06:08:45;;;;;;;14.52;10.68;;;;;;;;;;6235025;23;20048;-89
2022/03/17 06:14:21;;;;;;;20.88;11.68;;;;;;;;;;6233266;22;20024;-87
2022/03/17 06:17:04;;;;;;;17.80;11.13;;;;;;;;;;6234699;23;20456;-91
2022/03/17 06:19:30;;;;;;;24.75;14.23;;;;;;;;;;6206924;23;20359;-90
2022/03/17 06:21:56;;;;;;;31.42;16.52;;;;;;;;;;6236772;23;20016;-90
2022/03/17 06:24:22;;;;;;;37.75;18.13;;;;;;;;;;6234977;23;20353;-91
2022/03/17 06:26:48;;;;;;;35.90;18.75;;;;;;;;;;6186781;23;20452;-90
2022/03/17 06:29:14;;;;;;;34.55;17.83;;;;;;;;;;6236694;23;20023;-91
2022/03/17 06:31:47;;;;;;;39.58;18.02;;;;;;;;;;6237818;23;20024;-90
2022/03/17 06:37:16;;;;;;;27.20;15.93;;;;;;;;;;6212501;23;20024;-91
2022/03/17 06:39:42;;;;;;;26.23;12.77;;;;;;;;;;6211979;23;20073;-93
2022/03/17 06:42:08;;;;;;;19.52;9.52;;;;;;;;;;6211099;23;20020;-92
2022/03/17 06:44:34;;;;;;;22.50;11.32;;;;;;;;;;6189079;23;20051;-91
2022/03/17 06:47:01;;;;;;;24.15;10.98;;;;;;;;;;6235133;23;20020;-92
2022/03/17 06:49:36;;;;;;;29.08;11.45;;;;;;;;;;6187785;23;20026;-90
2022/03/17 06:52:02;;;;;;;28.98;10.88;;;;;;;;;;6235381;23;20024;-91
2022/03/17 06:54:28;;;;;;;23.63;9.52;;;;;;;;;;6211902;23;20021;-91
2022/03/17 06:56:54;;;;;;;22.85;9.40;;;;;;;;;;6184430;23;20023;-92
2022/03/17 06:59:20;;;;;;;19.48;7.28;;;;;;;;;;6212970;23;20190;-91
2022/03/17 07:01:50;;;;;;;11.93;5.93;;;;;;;;;;6210338;23;20074;-87
2022/03/17 07:04:16;;;;;;;19.15;5.78;;;;;;;;;;6209728;23;20015;-84
2022/03/17 07:09:45;;;;;;;15.57;5.05;;;;;;;;;;6241394;23;20534;-88
2022/03/17 07:12:12;;;;;;;12.75;4.78;;;;;;;;;;6240808;23;20073;-85
2022/03/17 07:14:38;;;;;;;16.20;4.13;;;;;;;;;;6211917;23;20018;-87
2022/03/17 07:17:05;;;;;;;11.23;3.03;;;;;;;;;;6214459;23;20024;-91
2022/03/17 07:19:31;;;;;;;20.33;6.32;;;;;;;;;;6242152;23;20022;-89
2022/03/17 07:21:57;;;;;;;17.88;4.07;;;;;;;;;;6171429;23;20020;-84
2022/03/17 07:27:27;;;;;;;13.70;3.28;;;;;;;;;;6239033;23;20020;-88
2022/03/17 07:29:53;;;;;;;11.05;2.72;;;;;;;;;;6239083;23;20059;-90
2022/03/17 07:32:22;;;;;;;15.55;3.50;;;;;;;;;;6190715;23;20024;-91
2022/03/17 07:34:49;;;;;;;14.32;2.70;;;;;;;;;;6168475;23;20035;-88
2022/03/17 07:37:15;;;;;;;8.95;2.47;;;;;;;;;;6204409;23;20023;-87
2022/03/17 07:39:42;;;;;;;15.40;2.85;;;;;;;;;;6179236;23;20068;-91
2022/03/17 07:42:08;;;;;;;12.02;3.00;;;;;;;;;;6163558;23;20786;-91
2022/03/17 07:44:37;;;;;;;13.02;2.60;;;;;;;;;;6187868;23;20016;-87
2022/03/17 07:47:04;;;;;;;15.98;2.33;;;;;;;;;;6211751;23;20172;-92
2022/03/17 07:49:31;;;;;;;13.43;1.95;;;;;;;;;;6211842;23;20019;-84
2022/03/17 07:51:57;;;;;;;10.75;2.10;;;;;;;;;;6213824;23;20120;-88
2022/03/17 07:54:23;;;;;;;16.17;2.63;;;;;;;;;;6187357;23;20012;-89
2022/03/17 07:56:50;;;;;;;11.50;2.53;;;;;;;;;;6214646;23;20055;-85
2022/03/17 07:59:16;;;;;;;12.55;1.88;;;;;;;;;;6221028;23;20446;-85
2022/03/17 08:01:42;;;;;;;6.50;1.25;;;;;;;;;;6221617;23;20020;-91
2022/03/17 08:04:09;;;;;;;14.15;1.70;;;;;;;;;;6191720;23;20039;-92
2022/03/17 08:06:35;;;;;;;18.13;1.95;;;;;;;;;;6213600;23;20024;-92
2022/03/17 08:09:24;;;;;;;13.35;2.42;;;;;;;;;;6212187;23;20016;-90
2022/03/17 08:12:22;;;;;;;12.65;2.38;;;;;;;;;;6210730;23;20118;-92
2022/03/17 08:14:50;;;;;;;12.35;2.78;;;;;;;;;;6211023;23;20149;-88
2022/03/17 08:17:19;;;;;;;13.45;2.85;;;;;;;;;;6207292;23;20459;-90
2022/03/17 08:19:45;;;;;;;15.05;2.88;;;;;;;;;;6210060;23;20023;-93
2022/03/17 08:22:11;;;;;;;11.75;2.00;;;;;;;;;;6233888;23;20018;-87
2022/03/17 08:24:50;;;;;;;15.35;2.10;;;;;;;;;;6235942;23;20126;-88
2022/03/17 08:27:16;;;;;;;20.80;2.97;;;;;;;;;;6208586;23;20023;-87
2022/03/17 08:29:43;;;;;;;18.25;2.00;;;;;;;;;;6209985;23;20020;-86
2022/03/17 08:32:18;;;;;;;20.33;2.97;;;;;;;;;;6184092;23;20031;-87
2022/03/17 08:37:51;;;;;;;21.38;3.00;;;;;;;;;;6235950;23;20030;-87
2022/03/17 08:40:17;;;;;;;31.90;5.40;;;;;;;;;;6186383;23;20056;-87
2022/03/17 08:42:43;;;;;;;22.35;3.20;;;;;;;;;;6208984;23;20341;-87
2022/03/17 08:50:40;;;;;;;22.05;2.90;;;;;;;;;;6237049;23;20025;-87
2022/03/17 08:53:06;;;;;;;25.60;3.45;;;;;;;;;;6238542;23;20055;-86
2022/03/17 08:55:32;;;;;;;24.83;3.53;;;;;;;;;;6239048;23;20119;-86
2022/03/17 08:57:58;;;;;;;18.50;3.70;;;;;;;;;;6238065;23;20023;-86
2022/03/17 09:00:24;;;;;;;30.90;3.33;;;;;;;;;;6238133;23;20017;-86
2022/03/17 09:02:53;;;;;;;26.98;3.05;;;;;;;;;;6210025;23;21019;-86
2022/03/17 09:05:19;;;;;;;20.10;2.97;;;;;;;;;;6185684;23;20337;-87
2022/03/17 09:08:01;;;;;;;13.20;2.80;;;;;;;;;;6187287;23;20077;-87
2022/03/17 09:10:38;;;;;;;12.15;2.72;;;;;;;;;;6195195;23;20024;-87
2022/03/17 09:13:11;;;;;;;17.52;2.25;;;;;;;;;;6182819;23;20029;-86
2022/03/17 09:15:41;;;;;;;22.30;2.83;;;;;;;;;;6152064;23;20083;-86
2022/03/17 09:18:21;;;;;;;17.67;3.03;;;;;;;;;;6154221;23;20112;-92
2022/03/17 09:20:47;;;;;;;14.82;2.65;;;;;;;;;;6179800;23;20027;-85
2022/03/17 09:23:13;;;;;;;14.82;2.80;;;;;;;;;;6180438;23;20032;-85
2022/03/17 09:25:40;;;;;;;24.27;3.05;;;;;;;;;;6179030;23;20087;-86
2022/03/17 09:28:06;;;;;;;12.27;2.75;;;;;;;;;;6189568;23;20017;-85
2022/03/17 09:30:34;;;;;;;15.70;2.50;;;;;;;;;;6178594;23;20445;-86
2022/03/17 09:33:06;;;;;;;16.60;2.90;;;;;;;;;;6153058;23;20056;-86
2022/03/17 09:35:34;;;;;;;13.75;2.63;;;;;;;;;;6179819;23;20021;-84
2022/03/17 09:38:01;;;;;;;15.07;2.85;;;;;;;;;;6177445;23;20421;-85
2022/03/17 09:40:27;;;;;;;18.25;2.20;;;;;;;;;;6182621;23;20028;-85
2022/03/17 09:43:18;;;;;;;19.02;2.88;;;;;;;;;;6177333;23;20092;-85
2022/03/17 09:45:43;;;;;;;20.13;2.72;;;;;;;;;;6197685;23;20051;-85
2022/03/17 09:48:14;;;;;;;16.30;2.92;;;;;;;;;;6204579;23;20047;-86
2022/03/17 09:50:41;;;;;;;18.95;2.63;;;;;;;;;;6179506;23;20056;-85
2022/03/17 09:53:07;;;;;;;13.90;2.22;;;;;;;;;;6177961;23;20370;-85
2022/03/17 09:55:34;;;;;;;29.60;3.75;;;;;;;;;;6180503;23;20017;-86
2022/03/17 09:58:02;;;;;;;23.55;2.63;;;;;;;;;;6178656;23;20021;-85
2022/03/17 10:00:47;;;;;;;16.83;2.92;;;;;;;;;;6179237;23;20353;-84
2022/03/17 10:03:14;;;;;;;17.20;3.08;;;;;;;;;;6176182;23;20064;-85
2022/03/17 10:05:42;;;;;;;15.00;3.35;;;;;;;;;;6178730;23;20135;-85
2022/03/17 10:08:08;;;;;;;17.80;3.53;;;;;;;;;;6175652;23;20027;-85
2022/03/17 10:10:35;;;;;;;13.38;2.65;;;;;;;;;;6178781;23;20071;-86
2022/03/17 10:13:06;;;;;;;19.42;3.72;;;;;;;;;;6199702;23;20028;-85
2022/03/17 10:15:32;;;;;;;17.10;2.65;;;;;;;;;;6184049;23;20032;-88
2022/03/17 10:18:00;;;;;;;10.60;2.10;;;;;;;;;;6208530;23;20024;-85
2022/03/17 10:20:27;;;;;;;14.43;2.78;;;;;;;;;;6209100;23;20017;-85
2022/03/17 10:22:55;;;;;;;17.48;2.72;;;;;;;;;;6209103;23;20461;-86
2022/03/17 10:25:22;;;;;;;17.65;2.40;;;;;;;;;;6208601;23;20081;-85
2022/03/17 10:27:54;;;;;;;24.60;3.03;;;;;;;;;;6209596;23;20071;-87
2022/03/17 10:30:33;;;;;;;17.67;2.63;;;;;;;;;;6207070;23;20020;-84
2022/03/17 10:33:04;;;;;;;12.85;2.30;;;;;;;;;;6184055;23;20104;-88
2022/03/17 10:35:34;;;;;;;17.05;3.13;;;;;;;;;;6192897;23;20025;-84
2022/03/17 10:38:10;;;;;;;19.40;2.83;;;;;;;;;;6225282;23;20024;-84
2022/03/17 10:40:37;;;;;;;14.93;2.92;;;;;;;;;;6226239;23;20031;-84
2022/03/17 10:43:15;;;;;;;13.07;2.50;;;;;;;;;;6192631;23;20020;-85
2022/03/17 10:45:41;;;;;;;15.73;2.70;;;;;;;;;;6212641;23;20017;-83
2022/03/17 10:48:08;;;;;;;17.40;3.17;;;;;;;;;;6209599;23;20031;-83
2022/03/17 10:50:42;;;;;;;20.48;3.47;;;;;;;;;;6219554;23;20025;-85
2022/03/17 10:53:08;;;;;;;20.20;3.25;;;;;;;;;;6224692;23;20025;-84
2022/03/17 10:55:35;;;;;;;18.83;3.47;;;;;;;;;;6224715;23;20017;-85
2022/03/17 10:58:13;;;;;;;18.00;2.80;;;;;;;;;;6209649;23;20016;-85
2022/03/17 11:00:53;;;;;;;14.38;3.47;;;;;;;;;;6209149;23;20070;-85
2022/03/17 11:03:19;;;;;;;15.10;3.13;;;;;;;;;;6208982;23;20321;-85
2022/03/17 11:05:46;;;;;;;21.75;3.50;;;;;;;;;;6209348;23;20394;-85
2022/03/17 11:08:13;;;;;;;14.93;3.03;;;;;;;;;;6184726;23;20052;-84
2022/03/17 11:10:39;;;;;;;28.33;3.55;;;;;;;;;;6186796;23;20025;-84
2022/03/17 11:13:11;;;;;;;16.20;3.42;;;;;;;;;;6224150;23;20013;-84
2022/03/17 11:15:49;;;;;;;13.35;2.70;;;;;;;;;;6229922;23;20017;-85
2022/03/17 11:18:24;;;;;;;18.27;2.92;;;;;;;;;;6181666;23;20020;-86
2022/03/17 11:21:10;;;;;;;19.23;3.20;;;;;;;;;;6147472;23;20077;-85
2022/03/17 11:23:54;;;;;;;17.02;3.33;;;;;;;;;;6211763;23;20016;-85
2022/03/17 11:26:22;;;;;;;19.70;3.90;;;;;;;;;;6224372;23;20012;-85
2022/03/17 11:28:48;;;;;;;23.08;2.97;;;;;;;;;;6222252;23;20020;-84
2022/03/17 11:31:19;;;;;;;15.35;2.90;;;;;;;;;;6162076;23;20487;-84
2022/03/17 11:33:46;;;;;;;20.60;2.97;;;;;;;;;;6209688;23;20103;-84
2022/03/17 11:36:21;;;;;;;17.15;4.07;;;;;;;;;;6184245;23;20099;-85
2022/03/17 11:39:08;;;;;;;19.83;2.88;;;;;;;;;;6208276;23;20103;-84
2022/03/17 11:41:41;;;;;;;19.23;3.58;;;;;;;;;;6182736;23;20165;-84
2022/03/17 11:44:07;;;;;;;16.50;3.55;;;;;;;;;;6210264;23;20694;-86
2022/03/17 11:46:46;;;;;;;23.92;3.28;;;;;;;;;;6182706;23;20023;-85
2022/03/17 11:49:19;;;;;;;17.40;3.58;;;;;;;;;;6210146;23;20862;-85
2022/03/17 11:51:52;;;;;;;14.77;2.15;;;;;;;;;;6157808;23;20464;-84
2022/03/17 11:54:18;;;;;;;20.80;3.30;;;;;;;;;;6183017;23;20021;-85
2022/03/17 11:56:45;;;;;;;13.25;2.53;;;;;;;;;;6210735;23;20426;-86
2022/03/17 11:59:16;;;;;;;16.30;2.85;;;;;;;;;;6208936;23;20021;-85
2022/03/17 12:01:47;;;;;;;14.07;2.60;;;;;;;;;;6209328;23;20024;-84
2022/03/17 12:04:22;;;;;;;17.20;2.95;;;;;;;;;;6182241;23;20326;-86
2022/03/17 12:06:55;;;;;;;17.35;3.25;;;;;;;;;;6210614;23;20099;-85
2022/03/17 12:09:31;;;;;;;10.05;2.10;;;;;;;;;;6157711;23;20056;-85
2022/03/17 12:11:57;;;;;;;23.95;3.30;;;;;;;;;;6209444;23;20024;-84
2022/03/17 12:14:24;;;;;;;15.80;2.30;;;;;;;;;;6208233;23;20353;-85
2022/03/17 12:16:52;;;;;;;14.13;3.13;;;;;;;;;;6208409;23;20013;-85
2022/03/17 12:19:35;;;;;;;22.15;4.75;;;;;;;;;;6207506;23;20397;-85
2022/03/17 12:22:01;;;;;;;16.70;2.30;;;;;;;;;;6156607;23;20028;-86
2022/03/17 12:24:47;;;;;;;13.02;2.97;;;;;;;;;;6205959;23;20095;-85
2022/03/17 12:27:13;;;;;;;12.52;2.25;;;;;;;;;;6206099;23;20021;-86
2022/03/17 12:29:40;;;;;;;9.85;2.00;;;;;;;;;;6206567;23;20020;-85
2022/03/17 12:32:07;;;;;;;13.27;2.10;;;;;;;;;;6181100;23;20447;-85
2022/03/17 12:34:34;;;;;;;8.65;2.03;;;;;;;;;;6179879;23;20028;-85
2022/03/17 12:37:01;;;;;;;12.00;2.30;;;;;;;;;;6207068;23;20027;-85
2022/03/17 12:39:31;;;;;;;13.93;2.30;;;;;;;;;;6155749;23;20034;-85
2022/03/17 12:41:58;;;;;;;15.40;2.35;;;;;;;;;;6207600;23;20021;-85
2022/03/17 12:44:25;;;;;;;13.70;2.47;;;;;;;;;;6205905;23;20452;-85
2022/03/17 12:46:52;;;;;;;10.88;2.50;;;;;;;;;;6157297;23;20096;-85
2022/03/17 12:49:19;;;;;;;11.05;2.22;;;;;;;;;;6180590;23;20131;-84
2022/03/17 12:51:45;;;;;;;13.02;2.40;;;;;;;;;;6205616;23;20016;-85
2022/03/17 12:54:15;;;;;;;18.58;2.10;;;;;;;;;;6155232;23;20016;-84
2022/03/17 12:56:53;;;;;;;12.20;2.35;;;;;;;;;;6207517;23;20326;-85
2022/03/17 12:59:20;;;;;;;10.55;2.17;;;;;;;;;;6205999;23;20056;-85
2022/03/17 13:01:47;;;;;;;11.82;2.50;;;;;;;;;;6207614;23;20107;-85
2022/03/17 13:04:13;;;;;;;8.38;2.05;;;;;;;;;;6180689;23;20485;-86
2022/03/17 13:06:55;;;;;;;8.68;2.15;;;;;;;;;;6205206;23;20449;-85
2022/03/17 13:09:30;;;;;;;16.17;2.63;;;;;;;;;;6187100;23;20031;-85
2022/03/17 13:14:46;;;;;;;11.82;2.30;;;;;;;;;;6206072;23;20063;-85
2022/03/17 13:17:12;;;;;;;13.95;2.08;;;;;;;;;;6156981;23;20020;-85
2022/03/17 13:20:00;;;;;;;11.93;2.08;;;;;;;;;;6179551;23;20047;-85
2022/03/17 13:22:29;;;;;;;11.00;1.95;;;;;;;;;;6204794;23;20088;-86
2022/03/17 13:25:06;;;;;;;6.03;1.58;;;;;;;;;;6156240;23;20020;-84
2022/03/17 13:27:32;;;;;;;13.13;2.22;;;;;;;;;;6208025;23;20017;-85
2022/03/17 13:30:02;;;;;;;4.47;1.45;;;;;;;;;;6161968;23;20024;-84
2022/03/17 13:32:28;;;;;;;11.18;2.20;;;;;;;;;;6211806;23;20405;-85
2022/03/17 13:34:58;;;;;;;13.40;2.55;;;;;;;;;;6168960;23;20095;-85
2022/03/17 13:37:33;;;;;;;8.55;1.80;;;;;;;;;;6191156;23;20048;-85
2022/03/17 13:40:03;;;;;;;14.55;1.85;;;;;;;;;;6209133;23;20349;-85
2022/03/17 13:42:30;;;;;;;10.07;2.20;;;;;;;;;;6210426;23;20025;-85
2022/03/17 13:44:56;;;;;;;9.00;1.90;;;;;;;;;;6167922;23;20734;-85
2022/03/17 13:47:26;;;;;;;10.43;2.20;;;;;;;;;;6160348;23;20082;-86
2022/03/17 13:50:09;;;;;;;13.60;2.15;;;;;;;;;;6190567;23;20024;-85
2022/03/17 13:52:35;;;;;;;12.60;2.33;;;;;;;;;;6164867;23;20024;-84
2022/03/17 13:55:01;;;;;;;14.38;1.73;;;;;;;;;;6210581;23;20028;-85
2022/03/17 13:57:28;;;;;;;18.20;2.33;;;;;;;;;;6209558;23;20035;-85
2022/03/17 13:59:54;;;;;;;7.57;1.63;;;;;;;;;;6182611;23;20025;-85
2022/03/17 14:02:23;;;;;;;10.05;2.35;;;;;;;;;;6185531;23;20019;-86
2022/03/17 14:04:53;;;;;;;14.52;2.25;;;;;;;;;;6225704;23;20067;-85
2022/03/17 14:10:16;;;;;;;11.73;2.20;;;;;;;;;;6211342;23;20025;-86
2022/03/17 14:12:42;;;;;;;6.93;1.50;;;;;;;;;;6208629;23;20032;-86
2022/03/17 14:15:08;;;;;;;7.15;2.15;;;;;;;;;;6208628;23;20507;-86
2022/03/17 14:17:35;;;;;;;11.13;2.45;;;;;;;;;;6130190;23;20059;-85
2022/03/17 14:20:05;;;;;;;10.80;2.17;;;;;;;;;;6209315;23;20036;-86
2022/03/17 14:25:16;;;;;;;10.13;1.85;;;;;;;;;;6191229;23;20029;-86
2022/03/17 14:27:42;;;;;;;11.63;2.20;;;;;;;;;;6207069;23;20030;-86
2022/03/17 14:30:08;;;;;;;13.27;1.98;;;;;;;;;;6180903;23;20523;-86
2022/03/17 14:32:35;;;;;;;10.65;2.17;;;;;;;;;;6131644;23;20151;-86
2022/03/17 14:35:01;;;;;;;6.57;1.60;;;;;;;;;;6193966;23;20032;-86
2022/03/17 14:37:30;;;;;;;7.03;1.83;;;;;;;;;;6225833;23;20059;-87
2022/03/17 14:39:56;;;;;;;12.38;1.75;;;;;;;;;;6171186;23;20017;-86
2022/03/17 14:42:22;;;;;;;12.98;1.55;;;;;;;;;;6148343;23;20027;-88
2022/03/17 14:44:48;;;;;;;9.20;1.50;;;;;;;;;;6173326;23;20055;-86
2022/03/17 14:47:15;;;;;;;11.23;2.13;;;;;;;;;;6168169;23;20044;-85
2022/03/17 14:49:42;;;;;;;8.75;1.70;;;;;;;;;;6182627;23;20027;-85
2022/03/17 14:52:08;;;;;;;10.50;2.20;;;;;;;;;;6180163;23;20020;-85
2022/03/17 14:54:36;;;;;;;10.73;2.10;;;;;;;;;;6156319;23;20075;-86
2022/03/17 14:57:02;;;;;;;9.90;1.98;;;;;;;;;;6180357;23;20580;-86
2022/03/17 14:59:35;;;;;;;5.90;1.30;;;;;;;;;;6168094;23;20043;-85
2022/03/17 15:02:01;;;;;;;10.13;1.98;;;;;;;;;;6231541;23;20062;-85
2022/03/17 15:04:27;;;;;;;9.32;1.27;;;;;;;;;;6226029;23;20017;-85
2022/03/17 15:06:54;;;;;;;11.82;2.13;;;;;;;;;;6228165;23;20023;-86
2022/03/17 15:09:20;;;;;;;7.85;1.65;;;;;;;;;;6181540;23;20067;-85
2022/03/17 15:11:46;;;;;;;13.15;2.75;;;;;;;;;;6207191;23;20020;-85
2022/03/17 15:14:13;;;;;;;9.07;1.60;;;;;;;;;;6180610;23;20472;-85
2022/03/17 15:16:40;;;;;;;3.63;1.13;;;;;;;;;;6180822;23;20128;-86
2022/03/17 15:19:12;;;;;;;10.15;1.77;;;;;;;;;;6211005;23;20082;-86
2022/03/17 15:21:38;;;;;;;9.85;1.40;;;;;;;;;;6209379;23;20027;-85
2022/03/17 15:24:04;;;;;;;9.60;1.50;;;;;;;;;;6183726;23;20047;-87
2022/03/17 15:26:53;;;;;;;5.40;1.20;;;;;;;;;;6182700;23;20305;-85